sensor_id;sensor_type;location;lat;lon;timestamp;temperature;humidity
59469;DHT22;45277;52.768;18.262;2023-02-28T00:01:00;-3.10;99.90
59469;DHT22;45277;52.768;18.262;2023-02-28T00:02:31;-3.00;99.90
59469;DHT22;45277;52.768;18.262;2023-02-28T00:04:02;-3.00;99.90
59469;DHT22;45277;52.768;18.262;2023-02-28T00:05:34;-3.00;99.90
59469;DHT22;45277;52.768;18.262;2023-02-28T00:07:05;-3.10;99.90
59469;DHT22;45277;52.768;18.262;2023-02-28T00:08:38;-3.10;99.90
59469;DHT22;45277;52.768;18.262;2023-02-28T00:11:51;-3.30;99.90
59469;DHT22;45277;52.768;18.262;2023-02-28T00:13:22;-3.50;99.90
59469;DHT22;45277;52.768;18.262;2023-02-28T00:14:54;-3.50;99.90
59469;DHT22;45277;52.768;18.262;2023-02-28T00:16:26;-3.60;99.90
59469;DHT22;45277;52.768;18.262;2023-02-28T00:17:57;-3.70;99.90
59469;DHT22;45277;52.768;18.262;2023-02-28T00:19:29;-3.80;99.90
59469;DHT22;45277;52.768;18.262;2023-02-28T00:21:00;-3.80;99.90
59469;DHT22;45277;52.768;18.262;2023-02-28T00:22:32;-3.90;99.90
59469;DHT22;45277;52.768;18.262;2023-02-28T00:24:04;-3.90;99.90
59469;DHT22;45277;52.768;18.262;2023-02-28T00:25:35;-3.90;99.90
59469;DHT22;45277;52.768;18.262;2023-02-28T00:27:06;-4.00;99.90
59469;DHT22;45277;52.768;18.262;2023-02-28T00:28:38;-4.00;99.90
59469;DHT22;45277;52.768;18.262;2023-02-28T00:30:12;-4.00;99.90
59469;DHT22;45277;52.768;18.262;2023-02-28T00:31:44;-4.00;99.90
59469;DHT22;45277;52.768;18.262;2023-02-28T00:33:16;-4.00;99.90
59469;DHT22;45277;52.768;18.262;2023-02-28T00:34:47;-4.10;99.90
59469;DHT22;45277;52.768;18.262;2023-02-28T00:36:18;-4.00;99.90
59469;DHT22;45277;52.768;18.262;2023-02-28T00:37:50;-4.10;99.90
59469;DHT22;45277;52.768;18.262;2023-02-28T00:39:22;-4.00;99.90
59469;DHT22;45277;52.768;18.262;2023-02-28T00:40:53;-3.80;99.90
59469;DHT22;45277;52.768;18.262;2023-02-28T00:42:25;-3.80;99.90
59469;DHT22;45277;52.768;18.262;2023-02-28T00:43:56;-3.80;99.90
59469;DHT22;45277;52.768;18.262;2023-02-28T00:45:28;-3.80;99.90
59469;DHT22;45277;52.768;18.262;2023-02-28T00:47:00;-3.80;99.90
59469;DHT22;45277;52.768;18.262;2023-02-28T00:48:32;-3.90;99.90
59469;DHT22;45277;52.768;18.262;2023-02-28T00:50:04;-4.00;99.90
59469;DHT22;45277;52.768;18.262;2023-02-28T00:51:36;-4.10;99.90
59469;DHT22;45277;52.768;18.262;2023-02-28T00:53:07;-4.10;99.90
59469;DHT22;45277;52.768;18.262;2023-02-28T00:54:38;-4.10;99.90
59469;DHT22;45277;52.768;18.262;2023-02-28T00:56:10;-4.00;99.90
59469;DHT22;45277;52.768;18.262;2023-02-28T00:57:42;-4.10;99.90
59469;DHT22;45277;52.768;18.262;2023-02-28T00:59:15;-4.00;99.90
59469;DHT22;45277;52.768;18.262;2023-02-28T01:00:47;-4.10;99.90
59469;DHT22;45277;52.768;18.262;2023-02-28T01:02:21;-4.10;99.90
59469;DHT22;45277;52.768;18.262;2023-02-28T01:03:52;-4.10;99.90
59469;DHT22;45277;52.768;18.262;2023-02-28T01:05:24;-4.00;99.90
59469;DHT22;45277;52.768;18.262;2023-02-28T01:06:55;-4.00;99.90
59469;DHT22;45277;52.768;18.262;2023-02-28T01:08:27;-4.00;99.90
59469;DHT22;45277;52.768;18.262;2023-02-28T01:09:59;-3.90;99.90
59469;DHT22;45277;52.768;18.262;2023-02-28T01:11:31;-3.90;99.90
59469;DHT22;45277;52.768;18.262;2023-02-28T01:13:03;-3.90;99.90
59469;DHT22;45277;52.768;18.262;2023-02-28T01:14:35;-3.90;99.90
59469;DHT22;45277;52.768;18.262;2023-02-28T01:16:07;-3.90;99.90
59469;DHT22;45277;52.768;18.262;2023-02-28T01:17:38;-4.00;99.90
59469;DHT22;45277;52.768;18.262;2023-02-28T01:19:10;-4.10;99.90
59469;DHT22;45277;52.768;18.262;2023-02-28T01:20:41;-4.20;99.90
59469;DHT22;45277;52.768;18.262;2023-02-28T01:22:13;-4.20;99.90
59469;DHT22;45277;52.768;18.262;2023-02-28T01:23:45;-4.30;99.90
59469;DHT22;45277;52.768;18.262;2023-02-28T01:25:17;-4.40;99.90
59469;DHT22;45277;52.768;18.262;2023-02-28T01:26:48;-4.40;99.90
59469;DHT22;45277;52.768;18.262;2023-02-28T01:28:20;-4.50;99.90
59469;DHT22;45277;52.768;18.262;2023-02-28T01:29:52;-4.60;99.90
59469;DHT22;45277;52.768;18.262;2023-02-28T01:31:23;-4.60;99.90
59469;DHT22;45277;52.768;18.262;2023-02-28T01:32:55;-4.70;99.90
59469;DHT22;45277;52.768;18.262;2023-02-28T01:34:26;-4.80;99.90
59469;DHT22;45277;52.768;18.262;2023-02-28T01:36:03;-4.90;99.90
59469;DHT22;45277;52.768;18.262;2023-02-28T01:37:35;-4.90;99.90
59469;DHT22;45277;52.768;18.262;2023-02-28T01:39:06;-5.00;99.90
59469;DHT22;45277;52.768;18.262;2023-02-28T01:40:38;-5.00;99.90
59469;DHT22;45277;52.768;18.262;2023-02-28T01:42:10;-4.90;99.90
59469;DHT22;45277;52.768;18.262;2023-02-28T01:45:30;-4.90;99.90
59469;DHT22;45277;52.768;18.262;2023-02-28T01:47:02;-5.00;99.90
59469;DHT22;45277;52.768;18.262;2023-02-28T01:48:38;-5.10;99.90
59469;DHT22;45277;52.768;18.262;2023-02-28T01:50:14;-5.10;99.90
59469;DHT22;45277;52.768;18.262;2023-02-28T01:51:50;-5.20;99.90
59469;DHT22;45277;52.768;18.262;2023-02-28T01:53:29;-5.20;99.90
59469;DHT22;45277;52.768;18.262;2023-02-28T01:55:04;-5.20;99.90
59469;DHT22;45277;52.768;18.262;2023-02-28T01:56:36;-5.20;99.90
59469;DHT22;45277;52.768;18.262;2023-02-28T01:58:08;-5.30;99.90
59469;DHT22;45277;52.768;18.262;2023-02-28T01:59:53;-5.20;99.90
59469;DHT22;45277;52.768;18.262;2023-02-28T02:04:07;-5.20;99.90
59469;DHT22;45277;52.768;18.262;2023-02-28T02:05:40;-5.20;99.90
59469;DHT22;45277;52.768;18.262;2023-02-28T02:07:13;-5.20;99.90
59469;DHT22;45277;52.768;18.262;2023-02-28T02:08:45;-5.30;99.90
59469;DHT22;45277;52.768;18.262;2023-02-28T02:10:31;-5.30;99.90
59469;DHT22;45277;52.768;18.262;2023-02-28T02:14:46;-5.30;99.90
59469;DHT22;45277;52.768;18.262;2023-02-28T02:18:34;-5.10;99.90
59469;DHT22;45277;52.768;18.262;2023-02-28T02:24:02;-5.30;99.90
59469;DHT22;45277;52.768;18.262;2023-02-28T02:27:43;-5.30;99.90
59469;DHT22;45277;52.768;18.262;2023-02-28T02:31:49;-5.10;99.90
59469;DHT22;45277;52.768;18.262;2023-02-28T02:40:23;-5.30;99.90
59469;DHT22;45277;52.768;18.262;2023-02-28T02:41:59;-5.30;99.90
59469;DHT22;45277;52.768;18.262;2023-02-28T02:43:40;-5.30;99.90
59469;DHT22;45277;52.768;18.262;2023-02-28T02:45:31;-5.40;99.90
59469;DHT22;45277;52.768;18.262;2023-02-28T02:47:10;-5.50;99.90
59469;DHT22;45277;52.768;18.262;2023-02-28T02:48:44;-5.40;99.90
59469;DHT22;45277;52.768;18.262;2023-02-28T02:50:26;-5.30;99.90
59469;DHT22;45277;52.768;18.262;2023-02-28T02:52:06;-5.00;99.90
59469;DHT22;45277;52.768;18.262;2023-02-28T02:53:47;-4.70;99.90
59469;DHT22;45277;52.768;18.262;2023-02-28T02:55:20;-4.50;99.90
59469;DHT22;45277;52.768;18.262;2023-02-28T02:56:53;-4.60;99.90
59469;DHT22;45277;52.768;18.262;2023-02-28T02:58:28;-4.80;99.90
59469;DHT22;45277;52.768;18.262;2023-02-28T03:00:03;-4.80;99.90
59469;DHT22;45277;52.768;18.262;2023-02-28T03:01:37;-4.80;99.90
59469;DHT22;45277;52.768;18.262;2023-02-28T03:03:10;-4.90;99.90
59469;DHT22;45277;52.768;18.262;2023-02-28T03:04:53;-5.00;99.90
59469;DHT22;45277;52.768;18.262;2023-02-28T03:06:31;-5.10;99.90
59469;DHT22;45277;52.768;18.262;2023-02-28T03:08:04;-5.20;99.90
59469;DHT22;45277;52.768;18.262;2023-02-28T03:09:36;-5.20;99.90
59469;DHT22;45277;52.768;18.262;2023-02-28T03:11:12;-5.20;99.90
59469;DHT22;45277;52.768;18.262;2023-02-28T03:13:39;-5.10;99.90
59469;DHT22;45277;52.768;18.262;2023-02-28T03:14:57;-5.10;99.90
59469;DHT22;45277;52.768;18.262;2023-02-28T03:16:59;-5.10;99.90
59469;DHT22;45277;52.768;18.262;2023-02-28T03:22:44;-5.30;99.90
59469;DHT22;45277;52.768;18.262;2023-02-28T03:26:21;-5.40;99.90
59469;DHT22;45277;52.768;18.262;2023-02-28T03:30:03;-5.50;99.90
59469;DHT22;45277;52.768;18.262;2023-02-28T03:31:50;-5.60;99.90
59469;DHT22;45277;52.768;18.262;2023-02-28T03:36:13;-5.60;99.90
59469;DHT22;45277;52.768;18.262;2023-02-28T03:38:27;-5.70;99.90
59469;DHT22;45277;52.768;18.262;2023-02-28T03:40:11;-5.70;99.90
59469;DHT22;45277;52.768;18.262;2023-02-28T03:41:53;-5.70;99.90
59469;DHT22;45277;52.768;18.262;2023-02-28T03:43:34;-5.70;99.90
59469;DHT22;45277;52.768;18.262;2023-02-28T03:45:13;-5.70;99.90
59469;DHT22;45277;52.768;18.262;2023-02-28T03:47:01;-5.70;99.90
59469;DHT22;45277;52.768;18.262;2023-02-28T03:48:43;-5.60;99.90
59469;DHT22;45277;52.768;18.262;2023-02-28T03:50:20;-5.50;99.90
59469;DHT22;45277;52.768;18.262;2023-02-28T03:51:54;-5.20;99.90
59469;DHT22;45277;52.768;18.262;2023-02-28T03:53:40;-5.10;99.90
59469;DHT22;45277;52.768;18.262;2023-02-28T03:55:14;-5.00;99.90
59469;DHT22;45277;52.768;18.262;2023-02-28T04:00:34;-5.00;99.90
59469;DHT22;45277;52.768;18.262;2023-02-28T04:02:07;-5.20;99.90
59469;DHT22;45277;52.768;18.262;2023-02-28T04:03:39;-5.20;99.90
59469;DHT22;45277;52.768;18.262;2023-02-28T04:05:11;-5.20;99.90
59469;DHT22;45277;52.768;18.262;2023-02-28T04:06:42;-5.20;99.90
59469;DHT22;45277;52.768;18.262;2023-02-28T04:08:14;-5.20;99.90
59469;DHT22;45277;52.768;18.262;2023-02-28T04:09:45;-5.30;99.90
59469;DHT22;45277;52.768;18.262;2023-02-28T04:11:24;-5.30;99.90
59469;DHT22;45277;52.768;18.262;2023-02-28T04:12:58;-5.30;99.90
59469;DHT22;45277;52.768;18.262;2023-02-28T04:14:30;-5.30;99.90
59469;DHT22;45277;52.768;18.262;2023-02-28T04:16:01;-5.30;99.90
59469;DHT22;45277;52.768;18.262;2023-02-28T04:17:33;-5.30;99.90
59469;DHT22;45277;52.768;18.262;2023-02-28T04:19:06;-5.40;99.90
59469;DHT22;45277;52.768;18.262;2023-02-28T04:20:38;-5.50;99.90
59469;DHT22;45277;52.768;18.262;2023-02-28T04:22:09;-5.60;99.90
59469;DHT22;45277;52.768;18.262;2023-02-28T04:23:41;-5.60;99.90
59469;DHT22;45277;52.768;18.262;2023-02-28T04:25:13;-5.60;99.90
59469;DHT22;45277;52.768;18.262;2023-02-28T04:26:47;-5.70;99.90
59469;DHT22;45277;52.768;18.262;2023-02-28T04:28:19;-5.80;99.90
59469;DHT22;45277;52.768;18.262;2023-02-28T04:29:50;-5.90;99.90
59469;DHT22;45277;52.768;18.262;2023-02-28T04:31:21;-5.90;99.90
59469;DHT22;45277;52.768;18.262;2023-02-28T04:32:53;-5.90;99.90
59469;DHT22;45277;52.768;18.262;2023-02-28T04:34:26;-5.80;99.90
59469;DHT22;45277;52.768;18.262;2023-02-28T04:36:06;-5.80;99.90
59469;DHT22;45277;52.768;18.262;2023-02-28T04:37:39;-5.90;99.90
59469;DHT22;45277;52.768;18.262;2023-02-28T04:39:11;-5.80;99.90
59469;DHT22;45277;52.768;18.262;2023-02-28T04:40:42;-5.80;99.90
59469;DHT22;45277;52.768;18.262;2023-02-28T04:42:14;-5.70;99.90
59469;DHT22;45277;52.768;18.262;2023-02-28T04:43:46;-5.50;99.90
59469;DHT22;45277;52.768;18.262;2023-02-28T04:45:17;-5.40;99.90
59469;DHT22;45277;52.768;18.262;2023-02-28T04:46:49;-5.40;99.90
59469;DHT22;45277;52.768;18.262;2023-02-28T04:48:21;-5.40;99.90
59469;DHT22;45277;52.768;18.262;2023-02-28T04:49:52;-5.50;99.90
59469;DHT22;45277;52.768;18.262;2023-02-28T04:51:24;-5.50;99.90
59469;DHT22;45277;52.768;18.262;2023-02-28T04:52:55;-5.60;99.90
59469;DHT22;45277;52.768;18.262;2023-02-28T04:54:27;-5.70;99.90
59469;DHT22;45277;52.768;18.262;2023-02-28T04:55:59;-5.80;99.90
59469;DHT22;45277;52.768;18.262;2023-02-28T04:57:30;-5.90;99.90
59469;DHT22;45277;52.768;18.262;2023-02-28T04:59:04;-6.00;99.90
59469;DHT22;45277;52.768;18.262;2023-02-28T05:00:36;-6.10;99.90
59469;DHT22;45277;52.768;18.262;2023-02-28T05:02:07;-6.10;99.90
59469;DHT22;45277;52.768;18.262;2023-02-28T05:03:39;-6.20;99.90
59469;DHT22;45277;52.768;18.262;2023-02-28T05:05:13;-6.20;99.90
59469;DHT22;45277;52.768;18.262;2023-02-28T05:06:48;-6.20;99.90
59469;DHT22;45277;52.768;18.262;2023-02-28T05:08:20;-6.30;99.90
59469;DHT22;45277;52.768;18.262;2023-02-28T05:09:51;-6.30;99.90
59469;DHT22;45277;52.768;18.262;2023-02-28T05:11:29;-6.40;99.90
59469;DHT22;45277;52.768;18.262;2023-02-28T05:13:05;-6.50;99.90
59469;DHT22;45277;52.768;18.262;2023-02-28T05:14:38;-6.50;99.90
59469;DHT22;45277;52.768;18.262;2023-02-28T05:16:09;-6.60;99.90
59469;DHT22;45277;52.768;18.262;2023-02-28T05:17:41;-6.70;99.90
59469;DHT22;45277;52.768;18.262;2023-02-28T05:19:13;-6.70;99.90
59469;DHT22;45277;52.768;18.262;2023-02-28T05:20:44;-6.60;99.90
59469;DHT22;45277;52.768;18.262;2023-02-28T05:22:16;-6.50;99.90
59469;DHT22;45277;52.768;18.262;2023-02-28T05:23:48;-6.40;99.90
59469;DHT22;45277;52.768;18.262;2023-02-28T05:25:21;-6.40;99.90
59469;DHT22;45277;52.768;18.262;2023-02-28T05:26:55;-6.20;99.90
59469;DHT22;45277;52.768;18.262;2023-02-28T05:28:27;-6.20;99.90
59469;DHT22;45277;52.768;18.262;2023-02-28T05:29:58;-6.10;99.90
59469;DHT22;45277;52.768;18.262;2023-02-28T05:31:30;-6.10;99.90
59469;DHT22;45277;52.768;18.262;2023-02-28T05:33:02;-6.10;99.90
59469;DHT22;45277;52.768;18.262;2023-02-28T05:34:33;-6.20;99.90
59469;DHT22;45277;52.768;18.262;2023-02-28T05:36:05;-6.20;99.90
59469;DHT22;45277;52.768;18.262;2023-02-28T05:37:38;-6.30;99.90
59469;DHT22;45277;52.768;18.262;2023-02-28T05:39:10;-6.40;99.90
59469;DHT22;45277;52.768;18.262;2023-02-28T05:40:43;-6.40;99.90
59469;DHT22;45277;52.768;18.262;2023-02-28T05:42:15;-6.40;99.90
59469;DHT22;45277;52.768;18.262;2023-02-28T05:43:46;-6.30;99.90
59469;DHT22;45277;52.768;18.262;2023-02-28T05:45:18;-6.30;99.90
59469;DHT22;45277;52.768;18.262;2023-02-28T05:46:50;-6.20;99.90
59469;DHT22;45277;52.768;18.262;2023-02-28T05:48:21;-6.10;99.90
59469;DHT22;45277;52.768;18.262;2023-02-28T05:49:52;-6.10;99.90
59469;DHT22;45277;52.768;18.262;2023-02-28T05:51:24;-6.10;99.90
59469;DHT22;45277;52.768;18.262;2023-02-28T05:52:55;-6.10;99.90
59469;DHT22;45277;52.768;18.262;2023-02-28T05:54:27;-6.10;99.90
59469;DHT22;45277;52.768;18.262;2023-02-28T05:55:59;-6.10;99.90
59469;DHT22;45277;52.768;18.262;2023-02-28T05:57:30;-6.10;99.90
59469;DHT22;45277;52.768;18.262;2023-02-28T05:59:02;-6.10;99.90
59469;DHT22;45277;52.768;18.262;2023-02-28T06:00:34;-6.00;99.90
59469;DHT22;45277;52.768;18.262;2023-02-28T06:02:09;-6.00;99.90
59469;DHT22;45277;52.768;18.262;2023-02-28T06:03:41;-6.00;99.90
59469;DHT22;45277;52.768;18.262;2023-02-28T06:05:15;-6.10;99.90
59469;DHT22;45277;52.768;18.262;2023-02-28T06:06:48;-6.00;99.90
59469;DHT22;45277;52.768;18.262;2023-02-28T06:08:20;-6.00;99.90
59469;DHT22;45277;52.768;18.262;2023-02-28T06:09:52;-6.00;99.90
59469;DHT22;45277;52.768;18.262;2023-02-28T06:11:23;-5.90;99.90
59469;DHT22;45277;52.768;18.262;2023-02-28T06:13:00;-5.90;99.90
59469;DHT22;45277;52.768;18.262;2023-02-28T06:14:34;-5.80;99.90
59469;DHT22;45277;52.768;18.262;2023-02-28T06:16:06;-5.80;99.90
59469;DHT22;45277;52.768;18.262;2023-02-28T06:17:38;-5.80;99.90
59469;DHT22;45277;52.768;18.262;2023-02-28T06:19:10;-5.80;99.90
59469;DHT22;45277;52.768;18.262;2023-02-28T06:20:42;-5.80;99.90
59469;DHT22;45277;52.768;18.262;2023-02-28T06:22:13;-5.80;99.90
59469;DHT22;45277;52.768;18.262;2023-02-28T06:23:45;-5.70;99.90
59469;DHT22;45277;52.768;18.262;2023-02-28T06:25:17;-5.70;99.90
59469;DHT22;45277;52.768;18.262;2023-02-28T06:26:48;-5.60;99.90
59469;DHT22;45277;52.768;18.262;2023-02-28T06:28:20;-5.50;99.90
59469;DHT22;45277;52.768;18.262;2023-02-28T06:29:54;-5.50;99.90
59469;DHT22;45277;52.768;18.262;2023-02-28T06:31:27;-5.40;99.90
59469;DHT22;45277;52.768;18.262;2023-02-28T06:33:00;-5.40;99.90
59469;DHT22;45277;52.768;18.262;2023-02-28T06:34:31;-5.30;99.90
59469;DHT22;45277;52.768;18.262;2023-02-28T06:36:06;-5.20;99.90
59469;DHT22;45277;52.768;18.262;2023-02-28T06:37:38;-5.10;99.90
59469;DHT22;45277;52.768;18.262;2023-02-28T06:39:09;-5.10;99.90
59469;DHT22;45277;52.768;18.262;2023-02-28T06:40:41;-5.00;99.90
59469;DHT22;45277;52.768;18.262;2023-02-28T06:42:13;-4.90;99.90
59469;DHT22;45277;52.768;18.262;2023-02-28T06:43:44;-4.90;99.90
59469;DHT22;45277;52.768;18.262;2023-02-28T06:45:15;-4.80;99.90
59469;DHT22;45277;52.768;18.262;2023-02-28T06:46:47;-4.80;99.90
59469;DHT22;45277;52.768;18.262;2023-02-28T06:48:19;-4.80;99.90
59469;DHT22;45277;52.768;18.262;2023-02-28T06:49:50;-4.70;99.90
59469;DHT22;45277;52.768;18.262;2023-02-28T06:51:22;-4.70;99.90
59469;DHT22;45277;52.768;18.262;2023-02-28T06:52:55;-4.60;99.90
59469;DHT22;45277;52.768;18.262;2023-02-28T06:54:26;-4.50;99.90
59469;DHT22;45277;52.768;18.262;2023-02-28T06:55:58;-4.40;99.90
59469;DHT22;45277;52.768;18.262;2023-02-28T06:57:31;-4.30;99.90
59469;DHT22;45277;52.768;18.262;2023-02-28T06:59:04;-4.20;99.90
59469;DHT22;45277;52.768;18.262;2023-02-28T07:00:35;-4.10;99.90
59469;DHT22;45277;52.768;18.262;2023-02-28T07:02:08;-4.10;99.90
59469;DHT22;45277;52.768;18.262;2023-02-28T07:03:39;-4.10;99.90
59469;DHT22;45277;52.768;18.262;2023-02-28T07:05:11;-4.00;99.90
59469;DHT22;45277;52.768;18.262;2023-02-28T07:06:43;-4.00;99.90
59469;DHT22;45277;52.768;18.262;2023-02-28T07:08:14;-3.90;99.90
59469;DHT22;45277;52.768;18.262;2023-02-28T07:09:46;-3.80;99.90
59469;DHT22;45277;52.768;18.262;2023-02-28T07:11:18;-3.70;99.90
59469;DHT22;45277;52.768;18.262;2023-02-28T07:12:49;-3.60;99.90
59469;DHT22;45277;52.768;18.262;2023-02-28T07:14:21;-3.50;99.90
59469;DHT22;45277;52.768;18.262;2023-02-28T07:16:01;-3.50;99.90
59469;DHT22;45277;52.768;18.262;2023-02-28T07:17:33;-3.30;99.90
59469;DHT22;45277;52.768;18.262;2023-02-28T07:19:05;-3.30;99.90
59469;DHT22;45277;52.768;18.262;2023-02-28T07:20:36;-3.20;99.90
59469;DHT22;45277;52.768;18.262;2023-02-28T07:22:08;-3.20;99.90
59469;DHT22;45277;52.768;18.262;2023-02-28T07:23:39;-3.10;99.90
59469;DHT22;45277;52.768;18.262;2023-02-28T07:25:11;-3.00;99.90
59469;DHT22;45277;52.768;18.262;2023-02-28T07:26:43;-3.00;99.90
59469;DHT22;45277;52.768;18.262;2023-02-28T07:28:14;-2.90;99.90
59469;DHT22;45277;52.768;18.262;2023-02-28T07:29:46;-2.80;99.90
59469;DHT22;45277;52.768;18.262;2023-02-28T07:31:18;-2.80;99.90
59469;DHT22;45277;52.768;18.262;2023-02-28T07:32:50;-2.70;99.90
59469;DHT22;45277;52.768;18.262;2023-02-28T07:34:21;-2.60;99.90
59469;DHT22;45277;52.768;18.262;2023-02-28T07:36:00;-2.50;99.90
59469;DHT22;45277;52.768;18.262;2023-02-28T07:37:32;-2.40;99.90
59469;DHT22;45277;52.768;18.262;2023-02-28T07:39:07;-2.30;99.90
59469;DHT22;45277;52.768;18.262;2023-02-28T07:40:40;-2.10;99.90
59469;DHT22;45277;52.768;18.262;2023-02-28T07:42:12;-2.00;99.90
59469;DHT22;45277;52.768;18.262;2023-02-28T07:43:44;-1.90;99.90
59469;DHT22;45277;52.768;18.262;2023-02-28T07:45:16;-1.80;99.90
59469;DHT22;45277;52.768;18.262;2023-02-28T07:46:48;-1.70;99.90
59469;DHT22;45277;52.768;18.262;2023-02-28T07:48:19;-1.60;99.90
59469;DHT22;45277;52.768;18.262;2023-02-28T07:49:50;-1.50;99.90
59469;DHT22;45277;52.768;18.262;2023-02-28T07:51:22;-1.40;99.90
59469;DHT22;45277;52.768;18.262;2023-02-28T07:52:53;-1.30;99.90
59469;DHT22;45277;52.768;18.262;2023-02-28T07:54:25;-1.20;99.90
59469;DHT22;45277;52.768;18.262;2023-02-28T07:55:58;-1.20;99.90
59469;DHT22;45277;52.768;18.262;2023-02-28T07:57:29;-1.20;99.90
59469;DHT22;45277;52.768;18.262;2023-02-28T07:59:01;-1.20;99.90
59469;DHT22;45277;52.768;18.262;2023-02-28T08:00:32;-1.20;99.90
59469;DHT22;45277;52.768;18.262;2023-02-28T08:02:04;-1.10;99.90
59469;DHT22;45277;52.768;18.262;2023-02-28T08:03:36;-1.00;99.90
59469;DHT22;45277;52.768;18.262;2023-02-28T08:05:08;-0.90;99.90
59469;DHT22;45277;52.768;18.262;2023-02-28T08:06:39;-0.90;99.90
59469;DHT22;45277;52.768;18.262;2023-02-28T08:08:11;-0.90;99.90
59469;DHT22;45277;52.768;18.262;2023-02-28T08:09:45;-0.80;99.90
59469;DHT22;45277;52.768;18.262;2023-02-28T08:11:17;-0.70;99.90
59469;DHT22;45277;52.768;18.262;2023-02-28T08:12:49;-0.70;99.90
59469;DHT22;45277;52.768;18.262;2023-02-28T08:14:20;-0.70;99.90
59469;DHT22;45277;52.768;18.262;2023-02-28T08:15:52;-0.70;99.90
59469;DHT22;45277;52.768;18.262;2023-02-28T08:17:23;-0.60;99.90
59469;DHT22;45277;52.768;18.262;2023-02-28T08:18:55;-0.60;99.90
59469;DHT22;45277;52.768;18.262;2023-02-28T08:20:26;-0.60;99.90
59469;DHT22;45277;52.768;18.262;2023-02-28T08:21:58;-0.50;99.90
59469;DHT22;45277;52.768;18.262;2023-02-28T08:23:29;-0.50;99.90
59469;DHT22;45277;52.768;18.262;2023-02-28T08:25:01;-0.40;99.90
59469;DHT22;45277;52.768;18.262;2023-02-28T08:26:32;-0.40;99.90
59469;DHT22;45277;52.768;18.262;2023-02-28T08:28:04;-0.40;99.90
59469;DHT22;45277;52.768;18.262;2023-02-28T08:29:39;-0.40;99.90
59469;DHT22;45277;52.768;18.262;2023-02-28T08:31:11;-0.30;99.90
59469;DHT22;45277;52.768;18.262;2023-02-28T08:32:44;-0.30;99.90
59469;DHT22;45277;52.768;18.262;2023-02-28T08:34:16;-0.20;99.90
59469;DHT22;45277;52.768;18.262;2023-02-28T08:35:48;-0.20;99.90
59469;DHT22;45277;52.768;18.262;2023-02-28T08:37:20;-0.10;99.90
59469;DHT22;45277;52.768;18.262;2023-02-28T08:38:51;0.00;99.90
59469;DHT22;45277;52.768;18.262;2023-02-28T08:40:22;0.10;99.90
59469;DHT22;45277;52.768;18.262;2023-02-28T08:41:54;0.10;99.90
59469;DHT22;45277;52.768;18.262;2023-02-28T08:43:26;0.10;99.90
59469;DHT22;45277;52.768;18.262;2023-02-28T08:44:57;0.10;99.90
59469;DHT22;45277;52.768;18.262;2023-02-28T08:46:29;0.20;99.90
59469;DHT22;45277;52.768;18.262;2023-02-28T08:48:00;0.20;99.90
59469;DHT22;45277;52.768;18.262;2023-02-28T08:49:32;0.30;99.90
59469;DHT22;45277;52.768;18.262;2023-02-28T08:51:08;0.30;99.90
59469;DHT22;45277;52.768;18.262;2023-02-28T08:52:42;0.40;99.90
59469;DHT22;45277;52.768;18.262;2023-02-28T08:54:14;0.40;99.90
59469;DHT22;45277;52.768;18.262;2023-02-28T08:56:04;0.40;99.90
59469;DHT22;45277;52.768;18.262;2023-02-28T08:57:36;0.50;99.90
59469;DHT22;45277;52.768;18.262;2023-02-28T08:59:08;0.60;99.90
59469;DHT22;45277;52.768;18.262;2023-02-28T09:00:40;0.60;99.90
59469;DHT22;45277;52.768;18.262;2023-02-28T09:02:15;0.70;99.90
59469;DHT22;45277;52.768;18.262;2023-02-28T09:03:47;0.70;99.90
59469;DHT22;45277;52.768;18.262;2023-02-28T09:05:19;0.70;99.90
59469;DHT22;45277;52.768;18.262;2023-02-28T09:06:50;0.70;99.90
59469;DHT22;45277;52.768;18.262;2023-02-28T09:08:23;0.80;99.90
59469;DHT22;45277;52.768;18.262;2023-02-28T09:09:55;0.90;99.90
59469;DHT22;45277;52.768;18.262;2023-02-28T09:11:27;1.00;99.90
59469;DHT22;45277;52.768;18.262;2023-02-28T09:12:58;1.00;99.90
59469;DHT22;45277;52.768;18.262;2023-02-28T09:14:30;1.00;99.90
59469;DHT22;45277;52.768;18.262;2023-02-28T09:16:04;1.10;99.90
59469;DHT22;45277;52.768;18.262;2023-02-28T09:17:35;1.20;99.90
59469;DHT22;45277;52.768;18.262;2023-02-28T09:19:11;1.30;99.90
59469;DHT22;45277;52.768;18.262;2023-02-28T09:20:43;1.40;99.90
59469;DHT22;45277;52.768;18.262;2023-02-28T09:22:15;1.40;99.90
59469;DHT22;45277;52.768;18.262;2023-02-28T09:23:49;1.50;99.90
59469;DHT22;45277;52.768;18.262;2023-02-28T09:25:21;1.50;99.90
59469;DHT22;45277;52.768;18.262;2023-02-28T09:26:53;1.50;99.90
59469;DHT22;45277;52.768;18.262;2023-02-28T09:28:24;1.60;99.90
59469;DHT22;45277;52.768;18.262;2023-02-28T09:29:56;1.60;99.90
59469;DHT22;45277;52.768;18.262;2023-02-28T09:31:28;1.70;99.90
59469;DHT22;45277;52.768;18.262;2023-02-28T09:33:00;1.80;99.90
59469;DHT22;45277;52.768;18.262;2023-02-28T09:34:31;1.80;99.90
59469;DHT22;45277;52.768;18.262;2023-02-28T09:36:03;1.80;99.90
59469;DHT22;45277;52.768;18.262;2023-02-28T09:37:35;1.80;99.90
59469;DHT22;45277;52.768;18.262;2023-02-28T09:39:06;1.90;99.90
59469;DHT22;45277;52.768;18.262;2023-02-28T09:40:52;1.90;99.90
59469;DHT22;45277;52.768;18.262;2023-02-28T09:42:31;2.00;99.90
59469;DHT22;45277;52.768;18.262;2023-02-28T09:44:04;2.10;99.90
59469;DHT22;45277;52.768;18.262;2023-02-28T09:45:38;2.20;99.90
59469;DHT22;45277;52.768;18.262;2023-02-28T09:48:45;2.30;99.90
59469;DHT22;45277;52.768;18.262;2023-02-28T09:50:29;2.40;99.90
59469;DHT22;45277;52.768;18.262;2023-02-28T09:52:07;2.40;99.90
59469;DHT22;45277;52.768;18.262;2023-02-28T09:53:40;2.60;99.90
59469;DHT22;45277;52.768;18.262;2023-02-28T09:57:28;2.80;99.90
59469;DHT22;45277;52.768;18.262;2023-02-28T10:00:58;3.00;99.90
59469;DHT22;45277;52.768;18.262;2023-02-28T10:02:49;3.00;99.90
59469;DHT22;45277;52.768;18.262;2023-02-28T10:04:50;3.00;99.90
59469;DHT22;45277;52.768;18.262;2023-02-28T10:06:30;3.10;99.90
59469;DHT22;45277;52.768;18.262;2023-02-28T10:08:11;3.40;99.90
59469;DHT22;45277;52.768;18.262;2023-02-28T10:09:46;3.60;99.90
59469;DHT22;45277;52.768;18.262;2023-02-28T10:11:22;3.80;99.90
59469;DHT22;45277;52.768;18.262;2023-02-28T10:12:59;4.00;99.90
59469;DHT22;45277;52.768;18.262;2023-02-28T10:14:33;4.20;99.90
59469;DHT22;45277;52.768;18.262;2023-02-28T10:16:13;4.30;97.60
59469;DHT22;45277;52.768;18.262;2023-02-28T10:17:49;4.50;99.90
59469;DHT22;45277;52.768;18.262;2023-02-28T10:19:42;4.70;96.10
59469;DHT22;45277;52.768;18.262;2023-02-28T10:21:31;4.70;98.10
59469;DHT22;45277;52.768;18.262;2023-02-28T10:23:25;4.90;74.90
59469;DHT22;45277;52.768;18.262;2023-02-28T10:24:58;5.10;85.00
59469;DHT22;45277;52.768;18.262;2023-02-28T10:26:33;5.10;77.00
59469;DHT22;45277;52.768;18.262;2023-02-28T10:28:11;4.90;84.90
59469;DHT22;45277;52.768;18.262;2023-02-28T10:29:45;4.70;81.40
59469;DHT22;45277;52.768;18.262;2023-02-28T10:31:19;4.60;80.90